Time;durP1;ratioP1;P1;durP2;ratioP2;P2;SDS_P1;SDS_P2;PMS_P1;PMS_P2;Temp;Humidity;BMP_temperature;BMP_pressure;BME280_temperature;BME280_humidity;BME280_pressure;Samples;Min_cycle;Max_cycle;Signal;HPM_P1;HPM_P2
2022/06/16 00:01:45;;;;;;;134.55;123.22;;;17.50;69.70;;;;;;5012864;28;20574;-75
2022/06/16 00:04:12;;;;;;;133.18;121.80;;;17.50;69.70;;;;;;5013216;28;20050;-75
2022/06/16 00:06:39;;;;;;;133.85;122.35;;;17.40;69.70;;;;;;5012677;28;20054;-75
2022/06/16 00:09:06;;;;;;;132.73;121.63;;;17.40;69.90;;;;;;4996319;28;20050;-76
2022/06/16 00:11:32;;;;;;;135.55;123.95;;;17.40;70.20;;;;;;5013849;28;20054;-75
2022/06/16 00:13:59;;;;;;;133.52;122.30;;;17.40;70.30;;;;;;5013805;28;20054;-75
2022/06/16 00:16:28;;;;;;;133.63;122.32;;;17.30;70.30;;;;;;5007949;28;20417;-75
2022/06/16 00:18:54;;;;;;;134.48;123.15;;;17.30;70.70;;;;;;4993094;28;20129;-75
2022/06/16 00:21:21;;;;;;;134.85;123.43;;;17.30;71.00;;;;;;4994511;28;20109;-76
2022/06/16 00:23:48;;;;;;;134.13;122.72;;;17.20;71.10;;;;;;4994215;28;20143;-76
2022/06/16 00:26:17;;;;;;;132.45;121.20;;;17.20;71.00;;;;;;4994535;28;20072;-76
2022/06/16 00:28:45;;;;;;;133.20;121.75;;;17.10;71.10;;;;;;4976703;28;20061;-75
2022/06/16 00:31:13;;;;;;;131.43;120.20;;;17.10;71.20;;;;;;4976797;28;20517;-76
2022/06/16 00:33:42;;;;;;;133.02;121.78;;;17.10;71.30;;;;;;4976810;28;20517;-75
2022/06/16 00:36:10;;;;;;;133.15;121.97;;;17.00;71.60;;;;;;4993979;28;20054;-76
2022/06/16 00:38:38;;;;;;;132.68;121.50;;;16.90;71.60;;;;;;4993904;28;20963;-75
2022/06/16 00:41:05;;;;;;;132.85;121.60;;;16.90;71.50;;;;;;4994078;28;20135;-76
2022/06/16 00:43:33;;;;;;;132.32;121.13;;;16.90;71.80;;;;;;4993327;28;20165;-75
2022/06/16 00:46:02;;;;;;;131.70;120.63;;;16.80;72.00;;;;;;4992462;28;20138;-75
2022/06/16 00:48:31;;;;;;;132.88;121.55;;;16.80;72.50;;;;;;4976004;28;20580;-75
2022/06/16 00:51:07;;;;;;;132.38;121.28;;;16.70;73.20;;;;;;4983978;28;20542;-75
2022/06/16 00:53:37;;;;;;;132.10;120.90;;;16.60;73.40;;;;;;5011137;28;20133;-75
2022/06/16 00:56:04;;;;;;;130.98;119.82;;;16.60;73.70;;;;;;5013474;28;20051;-75
2022/06/16 00:58:34;;;;;;;133.82;122.38;;;16.60;74.10;;;;;;5012107;28;20141;-76
2022/06/16 01:01:01;;;;;;;134.35;122.93;;;16.60;74.60;;;;;;4993752;28;20093;-75
2022/06/16 01:06:21;;;;;;;133.10;121.70;;;16.50;74.70;;;;;;5011784;28;20057;-75
2022/06/16 01:08:51;;;;;;;131.45;120.15;;;16.50;74.80;;;;;;5009979;28;20066;-75
2022/06/16 01:14:20;;;;;;;130.93;119.25;;;16.50;75.10;;;;;;4994924;28;20054;-75
2022/06/16 01:16:51;;;;;;;131.25;119.95;;;16.40;75.30;;;;;;4996014;28;20563;-75
2022/06/16 01:19:40;;;;;;;130.57;119.45;;;16.40;75.70;;;;;;5011713;28;20058;-75
2022/06/16 01:22:20;;;;;;;130.85;119.45;;;16.30;75.60;;;;;;5012429;28;20046;-75
2022/06/16 01:25:08;;;;;;;131.70;120.40;;;16.30;76.20;;;;;;5007209;28;20134;-75
2022/06/16 01:27:59;;;;;;;130.38;118.80;;;16.20;76.50;;;;;;4978780;28;20623;-75
2022/06/16 01:30:36;;;;;;;132.10;120.47;;;16.20;77.00;;;;;;4995930;28;20058;-75
2022/06/16 01:33:09;;;;;;;131.52;119.97;;;16.20;77.30;;;;;;5013672;28;20055;-76
2022/06/16 01:35:43;;;;;;;130.55;119.28;;;16.10;77.70;;;;;;4995767;28;20059;-75
2022/06/16 01:38:15;;;;;;;131.15;119.85;;;16.10;77.70;;;;;;4996141;28;20051;-75
2022/06/16 01:40:48;;;;;;;130.10;118.90;;;16.10;77.60;;;;;;4995623;28;20138;-76
2022/06/16 01:43:24;;;;;;;130.20;119.07;;;16.10;77.70;;;;;;4996081;28;20070;-75
2022/06/16 01:45:58;;;;;;;130.88;119.60;;;16.00;77.70;;;;;;4995844;28;20055;-75
2022/06/16 01:48:29;;;;;;;131.32;119.93;;;16.00;78.10;;;;;;4995059;28;20588;-75
2022/06/16 01:51:00;;;;;;;131.13;119.70;;;16.00;78.30;;;;;;4995151;28;20054;-75
2022/06/16 01:53:33;;;;;;;130.15;118.85;;;16.00;78.90;;;;;;5011636;28;20493;-76
2022/06/16 01:56:05;;;;;;;131.48;119.97;;;16.00;79.10;;;;;;4996423;28;20054;-75
2022/06/16 01:58:36;;;;;;;129.93;118.43;;;16.00;79.40;;;;;;5002230;28;20053;-75
2022/06/16 02:01:08;;;;;;;129.07;117.97;;;16.00;79.80;;;;;;5015091;28;20133;-75
2022/06/16 02:03:39;;;;;;;131.27;119.78;;;15.90;80.10;;;;;;4998399;28;20046;-76
2022/06/16 02:06:13;;;;;;;128.90;117.70;;;15.90;80.40;;;;;;5031762;28;20057;-76
2022/06/16 02:08:44;;;;;;;130.07;118.37;;;15.80;80.40;;;;;;5014639;28;20440;-76
2022/06/16 02:11:15;;;;;;;129.10;117.70;;;15.80;80.40;;;;;;4998693;28;20055;-76
2022/06/16 02:13:46;;;;;;;129.88;118.57;;;15.80;81.10;;;;;;5014281;28;20530;-76
2022/06/16 02:16:20;;;;;;;129.90;118.40;;;15.80;81.30;;;;;;5015200;28;20054;-75
2022/06/16 02:18:47;;;;;;;130.05;118.55;;;15.80;81.50;;;;;;5031016;28;20535;-75
2022/06/16 02:21:18;;;;;;;129.77;118.45;;;15.70;81.60;;;;;;5031081;28;20047;-75
2022/06/16 02:23:45;;;;;;;129.27;117.93;;;15.70;82.00;;;;;;5014744;28;20073;-75
2022/06/16 02:26:14;;;;;;;129.50;118.20;;;15.70;82.10;;;;;;5013988;28;20446;-75
2022/06/16 02:28:45;;;;;;;130.05;118.65;;;15.60;82.20;;;;;;5014450;28;20051;-75
2022/06/16 02:31:25;;;;;;;130.68;119.38;;;15.60;82.80;;;;;;4998334;28;20105;-75
2022/06/16 02:34:00;;;;;;;127.47;116.28;;;15.60;83.20;;;;;;4995052;28;20487;-75
2022/06/16 02:36:48;;;;;;;131.23;119.35;;;15.60;83.30;;;;;;4978552;28;20054;-76
2022/06/16 02:39:25;;;;;;;129.20;117.70;;;15.60;83.10;;;;;;4993265;28;20058;-75
2022/06/16 02:42:05;;;;;;;130.52;119.03;;;15.60;83.40;;;;;;4978255;28;20047;-75
2022/06/16 02:44:43;;;;;;;128.75;117.35;;;15.60;83.60;;;;;;4994434;28;20134;-75
2022/06/16 02:47:18;;;;;;;128.88;117.35;;;15.50;83.70;;;;;;4997045;28;20054;-75
2022/06/16 02:49:56;;;;;;;130.73;119.03;;;15.50;83.70;;;;;;4977186;28;20612;-76
2022/06/16 02:52:31;;;;;;;130.60;119.03;;;15.50;83.70;;;;;;4977379;28;20047;-75
2022/06/16 02:55:08;;;;;;;129.93;118.50;;;15.50;83.70;;;;;;4994341;28;20110;-75
2022/06/16 02:57:43;;;;;;;127.20;115.95;;;15.50;83.70;;;;;;4993846;28;20488;-75
2022/06/16 03:00:13;;;;;;;128.65;117.28;;;15.50;84.10;;;;;;4977894;28;20083;-75
2022/06/16 03:02:42;;;;;;;130.10;118.70;;;15.50;84.20;;;;;;4977491;28;20058;-75
2022/06/16 03:05:13;;;;;;;129.35;117.95;;;15.50;84.30;;;;;;4993918;28;20054;-75
2022/06/16 03:07:42;;;;;;;128.15;116.72;;;15.50;84.50;;;;;;5009784;28;20504;-75
2022/06/16 03:10:50;;;;;;;127.25;115.95;;;15.40;84.40;;;;;;4997272;28;20054;-75
2022/06/16 03:13:08;;;;;;;127.75;116.32;;;15.40;84.90;;;;;;5013621;28;20051;-75
2022/06/16 03:15:35;;;;;;;130.13;118.25;;;15.40;85.20;;;;;;5013088;28;20134;-75
2022/06/16 03:18:04;;;;;;;129.98;118.47;;;15.30;85.60;;;;;;4996841;28;20574;-75
2022/06/16 03:20:31;;;;;;;126.88;115.68;;;15.30;86.10;;;;;;5013564;28;20484;-75
2022/06/16 03:22:57;;;;;;;128.50;116.95;;;15.30;85.80;;;;;;4996791;28;20805;-75
2022/06/16 03:25:25;;;;;;;127.10;115.80;;;15.30;85.90;;;;;;4997273;28;20169;-75
2022/06/16 03:27:57;;;;;;;128.20;116.72;;;15.30;86.30;;;;;;4996374;28;20042;-75
2022/06/16 03:30:25;;;;;;;127.95;116.60;;;15.20;86.20;;;;;;4997080;28;20042;-75
2022/06/16 03:32:53;;;;;;;128.50;116.88;;;15.20;86.00;;;;;;4996964;28;20053;-75
2022/06/16 03:35:24;;;;;;;129.48;117.85;;;15.20;86.20;;;;;;4997040;28;20049;-75
2022/06/16 03:37:55;;;;;;;127.53;116.05;;;15.20;86.70;;;;;;4996992;28;20488;-75
2022/06/16 03:40:23;;;;;;;127.18;115.88;;;15.20;86.90;;;;;;4995221;28;20054;-75
2022/06/16 03:42:53;;;;;;;128.00;116.70;;;15.20;87.20;;;;;;4995176;28;20050;-75
2022/06/16 03:45:22;;;;;;;130.48;118.85;;;15.20;87.30;;;;;;5029751;28;20065;-75
2022/06/16 03:47:49;;;;;;;129.65;118.18;;;15.20;87.20;;;;;;5012696;28;20640;-76
2022/06/16 03:50:18;;;;;;;131.32;119.80;;;15.20;87.30;;;;;;5031256;28;20047;-75
2022/06/16 03:52:49;;;;;;;128.45;117.10;;;15.20;87.60;;;;;;5032633;28;20081;-75
2022/06/16 03:55:18;;;;;;;130.85;119.15;;;15.20;87.90;;;;;;5032676;28;20092;-75
2022/06/16 03:57:49;;;;;;;130.10;118.53;;;15.10;88.10;;;;;;5033221;28;20053;-75
2022/06/16 04:00:17;;;;;;;126.65;115.15;;;15.10;88.20;;;;;;5033092;28;20050;-75
2022/06/16 04:02:46;;;;;;;128.48;116.97;;;15.10;88.70;;;;;;5033980;28;20463;-75
2022/06/16 04:05:21;;;;;;;128.52;116.93;;;15.10;88.70;;;;;;5016223;28;20054;-75
2022/06/16 04:08:00;;;;;;;126.70;115.40;;;15.10;88.90;;;;;;5016130;28;20140;-75
2022/06/16 04:10:28;;;;;;;127.15;115.85;;;15.00;89.10;;;;;;5032858;28;20050;-75
2022/06/16 04:12:55;;;;;;;129.05;117.47;;;15.00;89.20;;;;;;5033909;28;20610;-75
2022/06/16 04:15:33;;;;;;;130.57;119.07;;;15.00;89.50;;;;;;5029276;28;20055;-75
2022/06/16 04:18:02;;;;;;;127.10;115.85;;;15.00;89.90;;;;;;4995997;28;20059;-75
2022/06/16 04:20:35;;;;;;;127.03;115.55;;;14.90;90.10;;;;;;5012877;28;20140;-75
2022/06/16 04:23:30;;;;;;;126.30;114.70;;;14.90;90.30;;;;;;5009573;28;20133;-75
2022/06/16 04:25:57;;;;;;;128.75;117.15;;;14.90;90.40;;;;;;4996150;28;20254;-75
2022/06/16 04:28:26;;;;;;;128.48;116.97;;;14.90;90.50;;;;;;5028897;28;20053;-75
2022/06/16 04:30:55;;;;;;;127.22;115.65;;;15.00;90.80;;;;;;4996238;28;20776;-75
2022/06/16 04:33:27;;;;;;;126.63;115.22;;;14.90;91.00;;;;;;4995762;28;20050;-75
2022/06/16 04:35:57;;;;;;;129.90;118.30;;;14.90;91.10;;;;;;4996129;28;20054;-75
2022/06/16 04:38:29;;;;;;;128.07;116.57;;;15.00;91.20;;;;;;4996141;28;20520;-75
2022/06/16 04:40:59;;;;;;;127.13;115.35;;;14.90;91.50;;;;;;4995700;28;20049;-75
2022/06/16 04:43:28;;;;;;;127.57;115.88;;;14.90;91.60;;;;;;5012601;28;20530;-75
2022/06/16 04:45:57;;;;;;;127.85;116.05;;;14.90;91.60;;;;;;4995873;28;21083;-75
2022/06/16 04:48:29;;;;;;;127.40;115.88;;;14.90;91.70;;;;;;4982191;28;20057;-75
2022/06/16 04:50:57;;;;;;;128.07;116.38;;;15.00;91.70;;;;;;4977018;28;20059;-75
2022/06/16 04:53:26;;;;;;;128.43;116.53;;;15.00;91.60;;;;;;4992265;28;20059;-75
2022/06/16 04:56:08;;;;;;;128.48;116.68;;;15.00;91.70;;;;;;4976712;28;20054;-75
2022/06/16 04:58:46;;;;;;;127.00;115.22;;;15.00;91.70;;;;;;4992343;28;20114;-75
2022/06/16 05:01:32;;;;;;;126.07;114.32;;;15.00;91.60;;;;;;4993227;28;20057;-75
2022/06/16 05:04:39;;;;;;;128.18;115.85;;;15.00;91.90;;;;;;4990312;28;20055;-75
2022/06/16 05:07:24;;;;;;;126.00;114.10;;;15.00;91.50;;;;;;4975069;28;20046;-75
2022/06/16 05:10:26;;;;;;;127.22;115.13;;;15.00;91.90;;;;;;4900953;29;20088;-75
2022/06/16 05:13:13;;;;;;;127.65;115.85;;;15.00;92.00;;;;;;4984597;28;20176;-75
2022/06/16 05:16:08;;;;;;;127.03;115.15;;;15.10;92.60;;;;;;4992010;28;20059;-75
2022/06/16 05:18:50;;;;;;;127.07;115.13;;;15.10;92.80;;;;;;5008059;28;20058;-77
2022/06/16 05:21:38;;;;;;;131.00;118.85;;;15.10;92.90;;;;;;5001475;28;20061;-78
2022/06/16 05:24:22;;;;;;;127.90;116.00;;;15.10;93.10;;;;;;5022813;28;20054;-76
2022/06/16 05:27:15;;;;;;;126.73;115.07;;;15.10;93.20;;;;;;5016542;28;20062;-76
2022/06/16 05:30:02;;;;;;;127.07;115.43;;;15.10;93.10;;;;;;5004670;28;20146;-75
2022/06/16 05:32:48;;;;;;;126.07;114.35;;;15.20;93.10;;;;;;5022174;28;20789;-76
2022/06/16 05:35:43;;;;;;;126.60;114.53;;;15.20;93.20;;;;;;5023596;28;20712;-77
2022/06/16 05:38:29;;;;;;;125.78;114.13;;;15.20;93.20;;;;;;5023161;28;20056;-76
2022/06/16 05:41:35;;;;;;;126.80;114.20;;;15.20;92.80;;;;;;5003974;28;20054;-76
2022/06/16 05:44:18;;;;;;;129.02;116.65;;;15.30;92.80;;;;;;5002732;28;20054;-76
2022/06/16 05:47:09;;;;;;;130.20;117.80;;;15.30;92.80;;;;;;5017528;28;20046;-75
2022/06/16 05:49:40;;;;;;;127.18;115.22;;;15.30;93.20;;;;;;5019304;28;20054;-75
2022/06/16 05:52:11;;;;;;;128.43;116.75;;;15.30;93.20;;;;;;4995370;28;20050;-75
2022/06/16 05:54:41;;;;;;;128.45;116.32;;;15.30;93.20;;;;;;5011406;28;20133;-75
2022/06/16 05:57:08;;;;;;;130.70;118.80;;;15.40;93.20;;;;;;4991460;28;20073;-76
2022/06/16 05:59:37;;;;;;;127.85;115.95;;;15.40;93.00;;;;;;5011469;28;20070;-76
2022/06/16 06:02:05;;;;;;;128.45;116.18;;;15.40;93.20;;;;;;5012157;28;20065;-76
2022/06/16 06:04:34;;;;;;;128.23;115.90;;;15.40;93.20;;;;;;5010662;28;20191;-75
2022/06/16 06:07:06;;;;;;;128.65;116.78;;;15.50;93.30;;;;;;5027024;28;20351;-76
2022/06/16 06:17:51;;;;;;;129.68;117.72;;;15.50;92.90;;;;;;4997458;28;20039;-76
2022/06/16 06:20:20;;;;;;;128.68;116.97;;;15.60;93.10;;;;;;5014381;28;20510;-75
2022/06/16 06:22:49;;;;;;;129.38;117.63;;;15.60;93.20;;;;;;4998477;28;20050;-74
2022/06/16 06:25:17;;;;;;;129.35;117.75;;;15.60;93.30;;;;;;5019123;28;20050;-74
2022/06/16 06:27:46;;;;;;;128.60;116.80;;;15.60;93.30;;;;;;5014097;28;20051;-73
2022/06/16 06:30:17;;;;;;;127.80;116.15;;;15.70;93.30;;;;;;5030259;28;20038;-75
2022/06/16 06:32:46;;;;;;;129.23;117.22;;;15.70;93.40;;;;;;4991619;28;20050;-74
2022/06/16 06:35:15;;;;;;;127.53;116.07;;;15.70;93.40;;;;;;5011819;28;20492;-74
2022/06/16 06:37:44;;;;;;;127.15;115.50;;;15.80;93.60;;;;;;5026109;28;20055;-74
2022/06/16 06:40:17;;;;;;;126.18;114.88;;;15.80;93.60;;;;;;4997046;28;20216;-74
2022/06/16 06:42:44;;;;;;;126.22;114.53;;;15.80;93.30;;;;;;5004751;28;20126;-74
2022/06/16 06:45:12;;;;;;;125.22;113.95;;;15.90;93.40;;;;;;5007789;28;20050;-74
2022/06/16 06:47:39;;;;;;;124.93;113.82;;;15.90;93.40;;;;;;5002396;28;20616;-74
2022/06/16 06:50:08;;;;;;;124.78;113.65;;;16.00;93.30;;;;;;5018630;28;20052;-74
2022/06/16 06:52:35;;;;;;;124.88;113.68;;;16.00;93.10;;;;;;5013165;28;20081;-76
2022/06/16 06:55:03;;;;;;;123.30;112.20;;;16.00;92.90;;;;;;5011903;28;20077;-74
2022/06/16 06:57:31;;;;;;;123.93;113.00;;;16.10;92.90;;;;;;5013749;28;20145;-74
2022/06/16 06:59:58;;;;;;;125.38;114.13;;;16.10;92.80;;;;;;5013012;28;20057;-74
2022/06/16 07:02:25;;;;;;;122.82;112.05;;;16.20;92.70;;;;;;5013610;28;20133;-75
2022/06/16 07:04:53;;;;;;;126.40;115.30;;;16.20;92.80;;;;;;5021302;28;20063;-75
2022/06/16 07:07:23;;;;;;;126.63;115.63;;;16.20;92.70;;;;;;5011451;28;20050;-77
2022/06/16 07:09:50;;;;;;;125.63;114.72;;;16.30;92.60;;;;;;5012932;28;20043;-75
2022/06/16 07:12:19;;;;;;;126.32;115.32;;;16.30;92.20;;;;;;5012516;28;20057;-74
2022/06/16 07:14:48;;;;;;;128.25;116.95;;;16.40;91.90;;;;;;5011655;28;20053;-82
2022/06/16 07:17:17;;;;;;;133.95;122.03;;;16.40;92.10;;;;;;5012889;28;20133;-80
2022/06/16 07:19:44;;;;;;;133.52;121.38;;;16.50;93.00;;;;;;4993186;28;20182;-80
2022/06/16 07:22:12;;;;;;;129.25;117.85;;;16.60;93.50;;;;;;4993963;28;20054;-80
2022/06/16 07:24:39;;;;;;;125.50;114.68;;;16.60;93.50;;;;;;5009651;28;20575;-80
2022/06/16 07:27:07;;;;;;;129.60;118.40;;;16.60;93.00;;;;;;5013492;28;20060;-80
2022/06/16 07:29:35;;;;;;;127.40;116.43;;;16.70;92.80;;;;;;4996961;28;20504;-81
2022/06/16 07:32:03;;;;;;;126.57;115.75;;;16.80;92.60;;;;;;4996405;28;20051;-81
2022/06/16 07:34:30;;;;;;;128.00;116.70;;;16.80;92.20;;;;;;5029877;28;20133;-81
2022/06/16 07:36:57;;;;;;;127.32;116.60;;;16.90;91.90;;;;;;5012347;28;20050;-82
2022/06/16 07:39:24;;;;;;;125.72;115.03;;;16.90;91.80;;;;;;5013094;28;20090;-75
2022/06/16 07:41:50;;;;;;;125.57;114.78;;;17.00;91.40;;;;;;5008812;28;20054;-83
2022/06/16 07:44:18;;;;;;;130.77;118.88;;;17.10;91.30;;;;;;4992267;28;20055;-77
2022/06/16 07:46:48;;;;;;;126.00;115.13;;;17.10;91.30;;;;;;4975743;28;20552;-81
2022/06/16 07:49:17;;;;;;;129.40;118.00;;;17.20;91.20;;;;;;4991913;28;20146;-79
2022/06/16 07:51:44;;;;;;;127.80;116.97;;;17.30;90.90;;;;;;4977588;28;20157;-81
2022/06/16 07:54:12;;;;;;;125.10;114.50;;;17.30;90.30;;;;;;4993421;28;20145;-81
2022/06/16 07:56:39;;;;;;;127.95;117.18;;;17.40;90.10;;;;;;4978602;28;20047;-76
2022/06/16 07:59:06;;;;;;;124.05;113.53;;;17.50;90.20;;;;;;4993090;28;20072;-78
2022/06/16 08:01:33;;;;;;;125.95;115.25;;;17.50;90.00;;;;;;4993627;28;20129;-81
2022/06/16 08:04:05;;;;;;;127.90;117.00;;;17.60;89.70;;;;;;4992176;28;20509;-77
2022/06/16 08:06:33;;;;;;;126.75;116.20;;;17.70;88.80;;;;;;4992171;28;20086;-76
2022/06/16 08:09:00;;;;;;;127.40;116.55;;;17.70;88.40;;;;;;4992974;28;20054;-76
2022/06/16 08:14:11;;;;;;;125.95;115.45;;;17.90;87.50;;;;;;4993787;28;20055;-75
2022/06/16 08:16:39;;;;;;;126.53;115.72;;;18.00;86.90;;;;;;4993784;28;20608;-76
2022/06/16 08:19:07;;;;;;;129.50;118.60;;;18.00;86.40;;;;;;4993942;28;20050;-78
2022/06/16 08:21:35;;;;;;;128.20;117.50;;;18.10;85.80;;;;;;5003410;28;20129;-76
2022/06/16 08:24:02;;;;;;;126.30;115.63;;;18.20;85.80;;;;;;5011529;28;20062;-75
2022/06/16 08:26:30;;;;;;;128.75;117.95;;;18.20;85.40;;;;;;5011836;28;20074;-76
2022/06/16 08:28:57;;;;;;;128.18;117.63;;;18.30;84.90;;;;;;5011741;28;20569;-77
2022/06/16 08:31:25;;;;;;;131.52;120.90;;;18.30;84.30;;;;;;5013297;28;20103;-77
2022/06/16 08:33:55;;;;;;;130.82;120.32;;;18.40;84.80;;;;;;5019040;28;20492;-75
2022/06/16 08:36:23;;;;;;;131.73;121.13;;;18.50;83.80;;;;;;5029737;28;20057;-75
2022/06/16 08:38:50;;;;;;;131.73;121.22;;;18.50;83.50;;;;;;5031248;28;20713;-76
2022/06/16 08:41:25;;;;;;;132.40;121.63;;;18.50;83.50;;;;;;5032153;28;20050;-75
2022/06/16 08:43:56;;;;;;;131.80;121.20;;;18.60;82.90;;;;;;5030323;28;20042;-73
2022/06/16 08:46:27;;;;;;;131.50;120.93;;;18.70;83.00;;;;;;5032162;28;20054;-72
2022/06/16 08:49:01;;;;;;;133.32;122.78;;;18.70;83.10;;;;;;5032583;28;20062;-79
2022/06/16 08:51:45;;;;;;;139.25;128.18;;;18.80;83.10;;;;;;5010336;28;20050;-82
2022/06/16 08:54:23;;;;;;;;;;;18.80;83.20;;;;;;4978868;28;20046;-84
2022/06/16 08:56:57;;;;;;;132.07;121.13;;;18.90;84.20;;;;;;5010753;28;19929;-76
2022/06/16 08:59:33;;;;;;;128.45;118.07;;;18.90;83.70;;;;;;4994415;28;20082;-77
2022/06/16 09:02:06;;;;;;;132.18;121.55;;;19.00;83.30;;;;;;5009869;28;20042;-76
2022/06/16 09:04:37;;;;;;;132.95;121.53;;;19.10;82.60;;;;;;5010834;28;20109;-74
2022/06/16 09:07:19;;;;;;;136.00;123.47;;;19.20;83.00;;;;;;5009326;28;20112;-76
2022/06/16 09:10:15;;;;;;;133.38;122.68;;;19.20;82.90;;;;;;5009844;28;20054;-82
2022/06/16 09:12:54;;;;;;;132.10;121.50;;;19.30;82.50;;;;;;4993759;28;20646;-80
2022/06/16 09:15:31;;;;;;;133.23;122.40;;;19.30;82.50;;;;;;5010332;28;20133;-83
2022/06/16 09:18:38;;;;;;;134.15;123.13;;;19.40;82.40;;;;;;5010784;28;20537;-85
2022/06/16 09:21:16;;;;;;;130.93;120.22;;;19.50;82.50;;;;;;4993908;28;20046;-82
2022/06/16 09:24:05;;;;;;;131.25;120.88;;;19.50;82.20;;;;;;5010931;28;20058;-87
2022/06/16 09:26:40;;;;;;;136.27;125.30;;;19.60;82.20;;;;;;5008422;28;20497;-84
2022/06/16 09:29:11;;;;;;;135.52;125.10;;;19.70;81.70;;;;;;4991950;28;20130;-92
2022/06/16 09:31:46;;;;;;;140.38;127.78;;;19.70;81.70;;;;;;4974987;28;20043;-85
2022/06/16 09:34:16;;;;;;;142.93;126.78;;;19.70;81.50;;;;;;4974423;28;20501;-78
2022/06/16 09:36:50;;;;;;;135.57;124.38;;;19.80;81.50;;;;;;4974491;28;20547;-76
2022/06/16 09:39:23;;;;;;;134.27;123.63;;;19.90;81.30;;;;;;4974757;28;20145;-77
2022/06/16 09:44:47;;;;;;;133.70;123.20;;;20.00;81.00;;;;;;4991257;28;20055;-79
2022/06/16 09:47:19;;;;;;;138.68;128.07;;;20.00;80.80;;;;;;4991731;28;20047;-74
2022/06/16 09:49:51;;;;;;;134.95;124.28;;;20.10;82.10;;;;;;4996180;28;20051;-83
2022/06/16 09:52:24;;;;;;;134.57;124.05;;;20.20;81.10;;;;;;4978698;28;20063;-82
2022/06/16 09:54:56;;;;;;;133.75;123.05;;;20.20;80.30;;;;;;4996457;28;20496;-77
2022/06/16 09:57:29;;;;;;;138.38;126.75;;;20.30;80.20;;;;;;4994718;28;20081;-79
2022/06/16 10:00:01;;;;;;;136.70;125.97;;;20.30;79.90;;;;;;4994785;28;20099;-81
2022/06/16 10:02:34;;;;;;;136.27;125.60;;;20.40;79.20;;;;;;4977376;28;20469;-78
2022/06/16 10:05:03;;;;;;;134.30;123.70;;;20.40;78.70;;;;;;4978897;28;20508;-87
2022/06/16 10:07:37;;;;;;;133.57;123.18;;;20.50;79.60;;;;;;4977536;28;20043;-85
2022/06/16 10:10:10;;;;;;;135.63;125.13;;;20.50;79.30;;;;;;4993726;28;20051;-85
2022/06/16 10:12:45;;;;;;;137.98;127.20;;;20.60;78.90;;;;;;4993958;28;20285;-80
2022/06/16 10:15:20;;;;;;;137.45;126.88;;;20.60;78.50;;;;;;4994058;28;20096;-80
2022/06/16 10:17:48;;;;;;;137.45;126.85;;;20.60;78.50;;;;;;4994250;28;20670;-80
2022/06/16 10:20:18;;;;;;;139.43;128.75;;;20.70;78.20;;;;;;4994803;28;20090;-81
2022/06/16 10:22:51;;;;;;;140.07;129.48;;;20.80;76.00;;;;;;4993135;28;20055;-81
2022/06/16 10:25:24;;;;;;;139.73;129.13;;;20.80;76.80;;;;;;4976593;28;20062;-81
2022/06/16 10:27:56;;;;;;;138.98;128.48;;;20.80;78.50;;;;;;4977329;28;20161;-81
2022/06/16 10:30:26;;;;;;;142.75;131.85;;;20.90;78.90;;;;;;4977320;28;20437;-83
2022/06/16 10:33:11;;;;;;;140.27;129.70;;;20.90;77.20;;;;;;4976774;28;20146;-79
2022/06/16 10:35:39;;;;;;;140.73;129.73;;;21.00;78.40;;;;;;4992428;28;20055;-78
2022/06/16 10:38:11;;;;;;;139.00;128.57;;;21.00;77.60;;;;;;4991516;28;20512;-80
2022/06/16 10:40:42;;;;;;;139.60;128.70;;;21.00;78.40;;;;;;4994048;28;20133;-78
2022/06/16 10:43:14;;;;;;;138.32;127.72;;;21.10;78.70;;;;;;4994103;28;20058;-76
2022/06/16 10:45:41;;;;;;;137.80;127.50;;;21.20;77.80;;;;;;4993778;28;20051;-80
2022/06/16 10:48:18;;;;;;;139.68;129.18;;;21.20;77.90;;;;;;4993260;28;20079;-81
2022/06/16 10:50:49;;;;;;;138.02;127.63;;;21.30;76.10;;;;;;4993991;28;20069;-82
2022/06/16 10:53:23;;;;;;;138.07;127.57;;;21.30;76.40;;;;;;4993914;28;20126;-79
2022/06/16 10:55:56;;;;;;;138.15;127.85;;;21.50;75.50;;;;;;4993682;28;20043;-81
2022/06/16 10:58:26;;;;;;;140.52;129.85;;;21.50;75.30;;;;;;4992649;28;20524;-82
2022/06/16 11:01:08;;;;;;;138.88;128.27;;;21.60;74.80;;;;;;4993795;28;20094;-86
2022/06/16 11:03:51;;;;;;;136.63;125.93;;;21.60;73.90;;;;;;4977960;28;20050;-87
2022/06/16 11:06:20;;;;;;;139.23;128.73;;;21.60;72.30;;;;;;4993272;28;20078;-84
2022/06/16 11:08:50;;;;;;;137.05;126.68;;;21.70;71.50;;;;;;4977181;28;20499;-83
2022/06/16 11:11:31;;;;;;;141.15;130.40;;;21.70;72.10;;;;;;4993338;28;20090;-84
2022/06/16 11:13:58;;;;;;;135.27;124.70;;;21.70;72.70;;;;;;4977262;28;20055;-84
2022/06/16 11:16:28;;;;;;;137.70;127.22;;;21.80;73.00;;;;;;4977307;28;20081;-82
2022/06/16 11:18:58;;;;;;;139.60;128.90;;;21.80;74.10;;;;;;4992948;28;20083;-84
2022/06/16 11:21:29;;;;;;;138.68;128.40;;;21.90;73.50;;;;;;4977342;28;20255;-84
2022/06/16 11:23:59;;;;;;;138.65;128.35;;;22.00;72.40;;;;;;4976745;28;20047;-81
2022/06/16 11:26:30;;;;;;;139.02;128.60;;;22.00;72.90;;;;;;4977707;28;20138;-74
2022/06/16 11:29:01;;;;;;;138.80;128.55;;;22.10;72.90;;;;;;4993245;28;20274;-72
2022/06/16 11:31:38;;;;;;;139.63;129.43;;;22.20;72.30;;;;;;4976777;28;20046;-75
2022/06/16 11:34:15;;;;;;;140.60;130.10;;;22.20;72.30;;;;;;5006224;28;20054;-74
2022/06/16 11:37:11;;;;;;;141.10;130.80;;;22.30;71.90;;;;;;5014068;28;20129;-76
2022/06/16 11:39:46;;;;;;;142.25;131.57;;;22.40;72.00;;;;;;5006217;28;20506;-77
2022/06/16 11:42:26;;;;;;;139.18;128.90;;;22.50;70.80;;;;;;5013319;28;20058;-75
2022/06/16 11:45:01;;;;;;;138.00;127.65;;;22.50;71.30;;;;;;5012441;28;20544;-76
2022/06/16 11:47:42;;;;;;;140.30;129.73;;;22.60;70.30;;;;;;4990007;28;20050;-78
2022/06/16 11:50:18;;;;;;;140.48;130.27;;;22.70;70.70;;;;;;4992199;28;20059;-73
2022/06/16 11:52:52;;;;;;;141.88;131.52;;;22.80;71.70;;;;;;4992102;28;20465;-87
2022/06/16 11:55:30;;;;;;;143.63;133.23;;;22.80;71.20;;;;;;4993323;28;20527;-82
2022/06/16 11:58:12;;;;;;;145.50;135.00;;;22.90;71.60;;;;;;5008970;28;20059;-79
2022/06/16 12:00:45;;;;;;;143.38;133.10;;;23.00;71.30;;;;;;5008231;28;20215;-77
2022/06/16 12:03:26;;;;;;;144.27;133.82;;;23.10;70.30;;;;;;4976453;28;20051;-75
2022/06/16 12:06:19;;;;;;;142.45;131.77;;;23.20;70.50;;;;;;4992281;28;20050;-72
2022/06/16 12:09:15;;;;;;;141.88;131.57;;;23.30;68.30;;;;;;4994167;28;20062;-78
2022/06/16 12:11:48;;;;;;;140.35;129.80;;;23.40;68.40;;;;;;4992443;28;20057;-77
2022/06/16 12:14:22;;;;;;;142.55;132.52;;;23.50;65.50;;;;;;4992465;28;20640;-79
2022/06/16 12:16:58;;;;;;;148.15;137.57;;;23.50;65.30;;;;;;4993553;28;20050;-73
2022/06/16 12:19:37;;;;;;;143.27;133.07;;;23.50;65.40;;;;;;4992566;28;20059;-82
2022/06/16 12:22:11;;;;;;;145.05;134.70;;;23.60;66.50;;;;;;5015472;28;20129;-85
2022/06/16 12:24:45;;;;;;;142.52;131.65;;;23.70;66.20;;;;;;4995860;28;20057;-83
2022/06/16 12:27:16;;;;;;;146.30;135.43;;;23.70;64.20;;;;;;4996082;28;20146;-81
2022/06/16 12:29:52;;;;;;;139.25;128.75;;;23.70;62.80;;;;;;4995683;28;20054;-82
2022/06/16 12:32:33;;;;;;;143.50;133.20;;;23.70;63.60;;;;;;5028755;28;20054;-82
2022/06/16 12:35:10;;;;;;;144.45;133.85;;;23.70;63.70;;;;;;5029146;28;20047;-81
2022/06/16 12:37:43;;;;;;;141.07;130.73;;;23.80;65.10;;;;;;5010815;28;20054;-76
2022/06/16 12:40:14;;;;;;;138.32;128.00;;;23.80;65.20;;;;;;5011621;28;20056;-79
2022/06/16 12:42:45;;;;;;;148.27;137.63;;;23.80;64.70;;;;;;5011817;28;20051;-83
2022/06/16 12:45:18;;;;;;;148.98;138.68;;;23.90;64.90;;;;;;5011879;28;20061;-78
2022/06/16 12:47:48;;;;;;;149.50;138.60;;;23.90;65.10;;;;;;5011709;28;20077;-80
2022/06/16 12:50:22;;;;;;;150.25;139.63;;;24.00;64.40;;;;;;5011670;28;20077;-85
2022/06/16 12:52:54;;;;;;;148.15;137.73;;;24.00;64.40;;;;;;5011676;28;20059;-85
2022/06/16 12:55:25;;;;;;;140.55;130.02;;;24.10;64.60;;;;;;4995028;28;20513;-82
2022/06/16 12:57:56;;;;;;;140.38;129.98;;;24.20;63.60;;;;;;5009814;28;20513;-79